createdAt,value
2023-02-21T00:00:10.019Z,98764.96
2023-02-21T00:03:19.153Z,98767.19
2023-02-21T00:06:05.882Z,98762.19
2023-02-21T00:08:53.288Z,98768.31
2023-02-21T00:11:40.444Z,98768.54
2023-02-21T00:14:27.621Z,98759.89
2023-02-21T00:17:14.991Z,98770.31
2023-02-21T00:20:02.273Z,98769.14
2023-02-21T00:22:49.600Z,98764.08
2023-02-21T00:25:36.920Z,98754.96
2023-02-21T00:28:23.950Z,98744.52
2023-02-21T00:31:11.001Z,98734.20
2023-02-21T00:33:58.265Z,98737.08
2023-02-21T00:36:45.431Z,98729.73
2023-02-21T00:39:32.709Z,98725.27
2023-02-21T00:42:19.867Z,98717.04
2023-02-21T00:45:06.969Z,98715.00
2023-02-21T00:47:54.324Z,98709.56
2023-02-21T00:50:41.331Z,98702.35
2023-02-21T00:53:28.704Z,98701.47
2023-02-21T00:56:16.000Z,98695.21
2023-02-21T00:59:02.737Z,98695.61
2023-02-21T01:01:50.565Z,98688.77
2023-02-21T01:04:37.696Z,98690.61
2023-02-21T01:07:24.709Z,98683.30
2023-02-21T01:10:12.025Z,98682.20
2023-02-21T01:12:59.349Z,98676.70
2023-02-21T01:15:46.029Z,98669.60
2023-02-21T01:18:33.722Z,98671.44
2023-02-21T01:21:23.321Z,98669.44
2023-02-21T01:24:10.391Z,98681.66
2023-02-21T01:26:58.084Z,98683.52
2023-02-21T01:29:45.333Z,98688.50
2023-02-21T01:32:32.603Z,98685.20
2023-02-21T01:35:19.605Z,98683.81
2023-02-21T01:38:06.689Z,98688.62
2023-02-21T01:40:54.140Z,98688.75
2023-02-21T01:43:44.096Z,98682.54
2023-02-21T01:46:39.001Z,98671.93
2023-02-21T01:49:36.451Z,98675.32
2023-02-21T01:52:24.910Z,98682.48
2023-02-21T01:55:14.173Z,98679.52
2023-02-21T01:58:04.806Z,98674.14
2023-02-21T02:00:52.615Z,98678.91
2023-02-21T02:03:41.265Z,98668.30
2023-02-21T02:06:33.403Z,98655.77
2023-02-21T02:09:41.508Z,98666.39
2023-02-21T02:12:37.430Z,98657.73
2023-02-21T02:15:37.708Z,98653.92
2023-02-21T02:18:07.466Z,98654.19
2023-02-21T02:20:57.450Z,98656.44
2023-02-21T02:24:05.961Z,98648.67
2023-02-21T02:27:21.527Z,98651.11
2023-02-21T02:30:26.760Z,98654.48
2023-02-21T02:33:30.627Z,98649.60
2023-02-21T02:36:10.455Z,98643.45
2023-02-21T02:39:22.866Z,98641.49
2023-02-21T02:42:28.931Z,98648.86
2023-02-21T02:45:06.121Z,98644.95
2023-02-21T02:47:42.815Z,98641.10
2023-02-21T02:50:13.146Z,98637.56
2023-02-21T02:52:54.089Z,98635.00
2023-02-21T02:55:40.490Z,98631.52
2023-02-21T02:58:12.966Z,98634.39
2023-02-21T03:00:50.448Z,98628.08
2023-02-21T03:03:56.941Z,98629.77
2023-02-21T03:06:37.479Z,98640.92
2023-02-21T03:09:24.085Z,98642.75
2023-02-21T03:12:19.825Z,98636.76
2023-02-21T03:15:15.828Z,98640.94
2023-02-21T03:18:01.417Z,98637.67
2023-02-21T03:20:30.407Z,98641.30
2023-02-21T03:23:03.090Z,98643.67
2023-02-21T03:25:34.750Z,98641.96
2023-02-21T03:28:04.966Z,98641.09
2023-02-21T03:30:44.629Z,98639.96
2023-02-21T03:33:13.189Z,98637.14
2023-02-21T03:35:42.082Z,98641.69
2023-02-21T03:38:11.382Z,98637.48
2023-02-21T03:40:40.170Z,98641.00
2023-02-21T03:43:08.762Z,98647.30
2023-02-21T03:45:44.398Z,98645.02
2023-02-21T03:48:26.177Z,98649.73
2023-02-21T03:51:01.228Z,98650.15
2023-02-21T03:53:33.305Z,98646.77
2023-02-21T03:56:02.492Z,98637.29
2023-02-21T03:58:38.470Z,98627.17
2023-02-21T04:01:07.417Z,98630.10
2023-02-21T04:03:36.230Z,98633.09
2023-02-21T04:06:06.652Z,98627.95
2023-02-21T04:08:35.549Z,98631.86
2023-02-21T04:11:04.333Z,98631.55
2023-02-21T04:13:35.888Z,98623.25
2023-02-21T04:16:05.532Z,98621.89
2023-02-21T04:18:37.744Z,98618.56
2023-02-21T04:21:07.881Z,98622.02
2023-02-21T04:23:36.874Z,98620.67
2023-02-21T04:26:06.485Z,98618.91
2023-02-21T04:28:46.732Z,98620.70
2023-02-21T04:31:17.653Z,98610.50
2023-02-21T04:33:46.625Z,98612.66
2023-02-21T04:36:20.305Z,98605.37
2023-02-21T04:38:50.614Z,98610.90
2023-02-21T04:41:19.779Z,98603.38
2023-02-21T04:43:48.377Z,98598.27
2023-02-21T04:46:19.440Z,98599.02
2023-02-21T04:48:51.397Z,98588.61
2023-02-21T04:51:24.099Z,98594.70
2023-02-21T04:53:54.243Z,98592.30
2023-02-21T04:56:26.267Z,98585.09
2023-02-21T04:58:55.164Z,98594.33
2023-02-21T05:01:28.529Z,98595.69
2023-02-21T05:03:58.628Z,98594.63
2023-02-21T05:06:30.047Z,98597.13
2023-02-21T05:08:59.916Z,98595.70
2023-02-21T05:11:28.494Z,98593.95
2023-02-21T05:13:56.892Z,98600.32
2023-02-21T05:16:25.971Z,98596.45
2023-02-21T05:18:54.629Z,98594.84
2023-02-21T05:21:24.245Z,98602.30
2023-02-21T05:23:59.117Z,98586.55
2023-02-21T05:26:31.658Z,98598.89
2023-02-21T05:29:00.160Z,98601.52
2023-02-21T05:31:29.741Z,98608.94
2023-02-21T05:33:58.688Z,98611.88
2023-02-21T05:36:27.253Z,98615.59
2023-02-21T05:38:56.571Z,98617.25
2023-02-21T05:41:25.252Z,98612.63
2023-02-21T05:43:54.434Z,98615.51
2023-02-21T05:46:30.030Z,98611.76
2023-02-21T05:49:00.606Z,98620.67
2023-02-21T05:51:38.541Z,98625.40
2023-02-21T05:54:10.061Z,98632.88
2023-02-21T05:56:40.564Z,98632.33
2023-02-21T05:59:10.479Z,98631.30
2023-02-21T06:01:39.022Z,98632.48
2023-02-21T06:04:10.456Z,98641.35
2023-02-21T06:06:51.833Z,98640.71
2023-02-21T06:09:20.809Z,98637.35
2023-02-21T06:11:49.241Z,98638.25
2023-02-21T06:14:20.851Z,98641.29
2023-02-21T06:16:49.309Z,98639.66
2023-02-21T06:19:19.027Z,98636.99
2023-02-21T06:21:47.698Z,98642.59
2023-02-21T06:24:16.152Z,98644.11
2023-02-21T06:26:45.115Z,98638.55
2023-02-21T06:29:13.780Z,98640.23
2023-02-21T06:31:42.525Z,98638.48
2023-02-21T06:34:11.501Z,98628.77
2023-02-21T06:36:40.171Z,98637.04
2023-02-21T06:39:10.976Z,98635.62
2023-02-21T06:41:39.491Z,98633.27
2023-02-21T06:44:07.932Z,98628.92
2023-02-21T06:46:38.210Z,98631.69
2023-02-21T06:49:07.119Z,98629.40
2023-02-21T06:51:39.786Z,98629.05
2023-02-21T06:54:08.265Z,98633.56
2023-02-21T06:56:37.176Z,98627.13
2023-02-21T06:59:05.740Z,98628.34
2023-02-21T07:01:34.357Z,98633.52
2023-02-21T07:04:03.025Z,98634.05
2023-02-21T07:06:33.750Z,98632.33
2023-02-21T07:09:02.562Z,98622.85
2023-02-21T07:11:36.174Z,98629.22
2023-02-21T07:14:05.091Z,98631.59
2023-02-21T07:16:34.277Z,98623.99
2023-02-21T07:19:02.828Z,98619.76
2023-02-21T07:21:32.095Z,98626.73
2023-02-21T07:24:00.876Z,98624.98
2023-02-21T07:26:29.464Z,98627.39
2023-02-21T07:28:57.959Z,98630.69
2023-02-21T07:31:27.351Z,98627.77
2023-02-21T07:33:56.294Z,98623.55
2023-02-21T07:36:25.008Z,98625.49
2023-02-21T07:38:53.522Z,98625.51
2023-02-21T07:41:22.343Z,98628.43
2023-02-21T07:43:51.390Z,98624.17
2023-02-21T07:46:20.181Z,98626.32
2023-02-21T07:48:48.889Z,98612.75
2023-02-21T07:51:23.385Z,98619.60
2023-02-21T07:53:51.861Z,98611.39
2023-02-21T07:56:20.408Z,98617.16
2023-02-21T07:58:49.066Z,98613.24
2023-02-21T08:01:17.684Z,98611.59
2023-02-21T08:03:46.215Z,98610.10
2023-02-21T08:06:15.174Z,98599.13
2023-02-21T08:08:44.381Z,98599.48
2023-02-21T08:11:13.111Z,98594.43
2023-02-21T08:13:41.788Z,98592.84
2023-02-21T08:16:10.471Z,98589.00
2023-02-21T08:18:39.018Z,98591.38
2023-02-21T08:21:11.069Z,98576.20
2023-02-21T08:23:39.866Z,98576.31
2023-02-21T08:26:08.682Z,98576.30
2023-02-21T08:28:37.604Z,98582.30
2023-02-21T08:31:07.412Z,98581.98
2023-02-21T08:33:36.002Z,98581.90
2023-02-21T08:36:05.468Z,98570.15
2023-02-21T08:38:34.674Z,98568.19
2023-02-21T08:41:04.714Z,98564.96
2023-02-21T08:43:33.410Z,98565.56
2023-02-21T08:46:03.076Z,98563.13
2023-02-21T08:48:31.606Z,98560.60
2023-02-21T08:51:00.049Z,98570.19
2023-02-21T08:53:28.477Z,98572.15
2023-02-21T08:55:56.906Z,98566.08
2023-02-21T08:58:25.511Z,98563.45
2023-02-21T09:00:54.134Z,98559.40
2023-02-21T09:03:22.730Z,98571.91
2023-02-21T09:05:51.170Z,98566.36
2023-02-21T09:08:21.152Z,98574.02
2023-02-21T09:10:49.669Z,98577.75
2023-02-21T09:13:18.153Z,98578.67
2023-02-21T09:15:46.787Z,98573.98
2023-02-21T09:18:16.200Z,98577.48
2023-02-21T09:20:45.973Z,98566.95
2023-02-21T09:23:15.782Z,98563.68
2023-02-21T09:25:44.343Z,98565.20
2023-02-21T09:28:14.031Z,98560.56
2023-02-21T09:30:42.838Z,98566.23
2023-02-21T09:33:12.755Z,98561.08
2023-02-21T09:35:41.358Z,98553.92
2023-02-21T09:38:10.635Z,98555.20
2023-02-21T09:41:01.973Z,98555.08
2023-02-21T09:43:52.273Z,98554.13
2023-02-21T09:46:49.290Z,98559.79
2023-02-21T09:49:34.019Z,98551.52
2023-02-21T09:52:03.393Z,98549.76
2023-02-21T09:54:47.176Z,98566.80
2023-02-21T09:57:18.432Z,98547.14
2023-02-21T09:59:48.309Z,98554.55
2023-02-21T10:02:54.573Z,98551.36
2023-02-21T10:05:33.767Z,98552.73
2023-02-21T10:08:18.053Z,98553.15
2023-02-21T10:10:53.940Z,98535.90
2023-02-21T10:13:35.733Z,98534.20
2023-02-21T10:16:24.557Z,98533.16
2023-02-21T10:19:13.177Z,98537.06
2023-02-21T10:21:44.773Z,98527.27
2023-02-21T10:24:15.914Z,98522.80
2023-02-21T10:26:49.174Z,98522.39
2023-02-21T10:29:20.596Z,98520.52
2023-02-21T10:31:53.624Z,98519.83
2023-02-21T10:34:27.820Z,98517.77
2023-02-21T10:36:57.799Z,98508.86
2023-02-21T10:39:56.620Z,98514.44
2023-02-21T10:42:33.924Z,98513.77
2023-02-21T10:45:05.966Z,98503.16
2023-02-21T10:47:53.494Z,98513.28
2023-02-21T10:50:39.933Z,98517.00
2023-02-21T10:53:09.444Z,98503.70
2023-02-21T10:55:38.236Z,98493.27
2023-02-21T10:58:19.113Z,98492.48
2023-02-21T11:00:48.650Z,98480.71
2023-02-21T11:03:20.623Z,98484.96
2023-02-21T11:05:59.994Z,98483.56
2023-02-21T11:08:42.357Z,98488.00
2023-02-21T11:11:11.321Z,98475.31
2023-02-21T11:13:39.820Z,98468.84
2023-02-21T11:16:20.556Z,98489.61
2023-02-21T11:19:06.406Z,98485.40
2023-02-21T11:21:34.931Z,98486.30
2023-02-21T11:24:05.742Z,98479.36
2023-02-21T11:26:45.968Z,98485.58
2023-02-21T11:29:18.609Z,98469.80
2023-02-21T11:31:47.129Z,98465.08
2023-02-21T11:34:19.995Z,98442.80
2023-02-21T11:36:49.893Z,98450.39
2023-02-21T11:39:19.996Z,98459.31
2023-02-21T11:41:51.001Z,98472.52
2023-02-21T11:44:39.560Z,98462.02
2023-02-21T11:47:07.993Z,98462.23
2023-02-21T11:49:49.332Z,98462.41
2023-02-21T11:52:25.278Z,98468.99
2023-02-21T11:54:54.641Z,98476.84
2023-02-21T11:57:30.405Z,98485.65
2023-02-21T12:00:24.079Z,98471.70
2023-02-21T12:03:19.677Z,98475.42
2023-02-21T12:06:14.487Z,98459.05
2023-02-21T12:08:53.951Z,98455.38
2023-02-21T12:11:47.391Z,98455.21
2023-02-21T12:15:03.993Z,98455.48
2023-02-21T12:17:41.518Z,98461.30
2023-02-21T12:20:22.025Z,98452.06
2023-02-21T12:23:02.277Z,98443.63
2023-02-21T12:25:50.531Z,98451.30
2023-02-21T12:28:33.306Z,98458.80
2023-02-21T12:31:11.700Z,98450.46
2023-02-21T12:34:20.694Z,98457.30
2023-02-21T12:37:21.464Z,98448.89
2023-02-21T12:40:18.704Z,98457.91
2023-02-21T12:43:25.210Z,98458.42
2023-02-21T12:46:19.409Z,98469.08
2023-02-21T12:48:57.427Z,98475.34
2023-02-21T12:51:30.890Z,98474.55
2023-02-21T12:54:06.424Z,98484.30
2023-02-21T12:57:05.905Z,98490.05
2023-02-21T12:59:46.892Z,98486.35
2023-02-21T13:02:39.220Z,98499.84
2023-02-21T13:05:18.331Z,98515.76
2023-02-21T13:07:59.045Z,98509.95
2023-02-21T13:10:51.145Z,98519.38
2023-02-21T13:13:27.784Z,98518.24
2023-02-21T13:15:57.888Z,98511.88
2023-02-21T13:18:37.765Z,98521.04
2023-02-21T13:21:45.650Z,98522.14
2023-02-21T13:24:21.856Z,98532.84
2023-02-21T13:27:08.472Z,98530.66
2023-02-21T13:29:39.261Z,98538.95
2023-02-21T13:32:20.445Z,98532.65
2023-02-21T13:35:02.474Z,98562.19
2023-02-21T13:37:34.683Z,98553.94
2023-02-21T13:40:16.956Z,98564.25
2023-02-21T13:42:45.527Z,98580.16
2023-02-21T13:45:23.489Z,98595.62
2023-02-21T13:47:57.869Z,98604.22
2023-02-21T13:50:38.069Z,98609.76
2023-02-21T13:53:09.359Z,98620.04
2023-02-21T13:55:38.432Z,98629.09
2023-02-21T13:58:07.639Z,98629.67
2023-02-21T14:00:35.897Z,98636.53
2023-02-21T14:03:07.209Z,98640.23
2023-02-21T14:05:44.900Z,98651.11
2023-02-21T14:08:16.207Z,98680.82
2023-02-21T14:10:53.862Z,98699.75
2023-02-21T14:13:54.427Z,98716.00
2023-02-21T14:16:48.448Z,98726.66
2023-02-21T14:19:26.832Z,98731.77
2023-02-21T14:22:03.548Z,98730.05
2023-02-21T14:24:36.209Z,98727.48
2023-02-21T14:27:25.642Z,98731.10
2023-02-21T14:30:03.081Z,98744.98
2023-02-21T14:32:52.945Z,98744.96
2023-02-21T14:35:33.755Z,98756.38
2023-02-21T14:38:08.935Z,98751.02
2023-02-21T14:41:01.611Z,98776.07
2023-02-21T14:43:31.848Z,98783.81
2023-02-21T14:46:26.544Z,98790.88
2023-02-21T14:49:00.899Z,98802.63
2023-02-21T14:51:47.772Z,98799.79
2023-02-21T14:54:40.670Z,98801.20
2023-02-21T14:57:27.691Z,98801.16
2023-02-21T15:00:03.136Z,98799.46
2023-02-21T15:02:46.861Z,98805.17
2023-02-21T15:05:19.649Z,98822.52
2023-02-21T15:07:48.039Z,98833.70
2023-02-21T15:10:22.510Z,98835.17
2023-02-21T15:13:02.275Z,98838.92
2023-02-21T15:15:38.171Z,98843.67
2023-02-21T15:18:25.649Z,98854.99
2023-02-21T15:21:12.390Z,98847.86
2023-02-21T15:23:45.670Z,98860.05
2023-02-21T15:26:30.309Z,98883.48
2023-02-21T15:29:07.007Z,98886.40
2023-02-21T15:31:48.513Z,98893.69
2023-02-21T15:34:32.682Z,98918.09
2023-02-21T15:37:20.980Z,98905.70
2023-02-21T15:40:04.148Z,98905.79
2023-02-21T15:42:35.197Z,98906.19
2023-02-21T15:45:10.306Z,98908.66
2023-02-21T15:47:39.102Z,98909.27
2023-02-21T15:50:07.497Z,98909.41
2023-02-21T15:52:46.542Z,98922.11
2023-02-21T15:55:20.792Z,98920.29
2023-02-21T15:58:08.107Z,98913.01
2023-02-21T16:00:48.483Z,98917.02
2023-02-21T16:03:29.005Z,98919.98
2023-02-21T16:06:25.270Z,98926.38
2023-02-21T16:09:08.049Z,98925.05
2023-02-21T16:11:58.354Z,98923.73
2023-02-21T16:14:38.967Z,98924.06
2023-02-21T16:17:13.724Z,98923.77
2023-02-21T16:19:48.105Z,98924.20
2023-02-21T16:22:59.694Z,98926.55
2023-02-21T16:25:26.830Z,98933.02
2023-02-21T16:28:00.623Z,98941.02
2023-02-21T16:30:32.561Z,98939.61
2023-02-21T16:33:04.605Z,98939.03
2023-02-21T16:35:34.190Z,98944.26
2023-02-21T16:38:02.638Z,98956.33
2023-02-21T16:40:39.070Z,98954.42
2023-02-21T16:43:07.547Z,98953.41
2023-02-21T16:45:39.133Z,98963.81
2023-02-21T16:48:18.408Z,98957.83
2023-02-21T16:50:48.150Z,98963.07
2023-02-21T16:53:17.762Z,98981.22
2023-02-21T16:55:46.648Z,98980.86
2023-02-21T16:58:31.481Z,98980.85
2023-02-21T17:01:08.456Z,98979.86
2023-02-21T17:03:36.740Z,98989.89
2023-02-21T17:06:06.337Z,98987.14
2023-02-21T17:08:34.621Z,98995.09
2023-02-21T17:11:06.061Z,99002.55
2023-02-21T17:13:34.372Z,99000.90
2023-02-21T17:16:02.633Z,99008.85
2023-02-21T17:18:31.761Z,99023.17
2023-02-21T17:21:00.957Z,99010.67
2023-02-21T17:23:29.864Z,99011.88
2023-02-21T17:25:58.197Z,99013.98
2023-02-21T17:28:26.513Z,99017.36
2023-02-21T17:30:54.971Z,99025.63
2023-02-21T17:33:32.437Z,99038.20
2023-02-21T17:36:01.099Z,99041.17
2023-02-21T17:38:29.638Z,99048.09
2023-02-21T17:40:58.567Z,99047.85
2023-02-21T17:43:27.054Z,99048.61
2023-02-21T17:45:55.461Z,99053.37
2023-02-21T17:48:23.777Z,99045.11
2023-02-21T17:50:52.032Z,99044.64
2023-02-21T17:53:20.386Z,99030.96
2023-02-21T17:55:48.769Z,99031.75
2023-02-21T17:58:17.029Z,99028.30
2023-02-21T18:00:45.733Z,99030.41
2023-02-21T18:03:14.062Z,99026.91
2023-02-21T18:05:44.464Z,99032.59
2023-02-21T18:08:17.132Z,99027.87
2023-02-21T18:10:48.521Z,99035.07
2023-02-21T18:13:21.638Z,99034.54
2023-02-21T18:15:50.216Z,99037.59
2023-02-21T18:18:18.693Z,99044.31
2023-02-21T18:20:47.202Z,99050.93
2023-02-21T18:23:16.826Z,99046.95
2023-02-21T18:25:45.212Z,99060.17
2023-02-21T18:28:13.460Z,99055.48
2023-02-21T18:30:42.137Z,99066.94
2023-02-21T18:33:10.505Z,99066.54
2023-02-21T18:35:39.098Z,99070.26
2023-02-21T18:38:07.633Z,99075.66
2023-02-21T18:40:44.701Z,99078.63
2023-02-21T18:43:23.254Z,99079.42
2023-02-21T18:45:53.265Z,99076.28
2023-02-21T18:48:22.740Z,99080.75
2023-02-21T18:50:51.942Z,99080.29
2023-02-21T18:53:20.568Z,99076.64
2023-02-21T18:55:48.931Z,99074.86
2023-02-21T18:58:17.268Z,99072.56
2023-02-21T19:00:47.384Z,99070.14
2023-02-21T19:03:15.697Z,99063.89
2023-02-21T19:05:44.011Z,99069.98
2023-02-21T19:08:12.310Z,99064.48
2023-02-21T19:10:40.713Z,99068.77
2023-02-21T19:13:09.076Z,99074.52
2023-02-21T19:15:37.819Z,99081.02
2023-02-21T19:18:06.317Z,99083.42
2023-02-21T19:20:34.679Z,99083.70
2023-02-21T19:23:03.020Z,99088.26
2023-02-21T19:25:31.510Z,99097.23
2023-02-21T19:28:03.304Z,99104.25
2023-02-21T19:30:37.077Z,99114.70
2023-02-21T19:33:08.340Z,99112.29
2023-02-21T19:35:37.914Z,99117.96
2023-02-21T19:38:07.708Z,99122.36
2023-02-21T19:40:36.464Z,99115.85
2023-02-21T19:43:04.822Z,99113.69
2023-02-21T19:45:33.294Z,99120.25
2023-02-21T19:48:01.673Z,99125.17
2023-02-21T19:50:35.103Z,99122.05
2023-02-21T19:53:03.716Z,99128.27
2023-02-21T19:55:31.922Z,99130.38
2023-02-21T19:58:00.369Z,99133.23
2023-02-21T20:00:28.873Z,99134.30
2023-02-21T20:02:57.015Z,99141.90
2023-02-21T20:05:25.761Z,99141.11
2023-02-21T20:07:54.375Z,99148.92
2023-02-21T20:10:25.774Z,99152.20
2023-02-21T20:12:57.587Z,99156.78
2023-02-21T20:15:26.008Z,99160.08
2023-02-21T20:17:55.013Z,99161.80
2023-02-21T20:20:23.556Z,99170.45
2023-02-21T20:22:51.960Z,99167.71
2023-02-21T20:25:20.937Z,99169.90
2023-02-21T20:27:49.207Z,99173.66
2023-02-21T20:30:17.958Z,99178.49
2023-02-21T20:32:46.726Z,99178.38
2023-02-21T20:35:15.286Z,99187.55
2023-02-21T20:37:43.556Z,99184.10
2023-02-21T20:40:15.532Z,99189.31
2023-02-21T20:42:44.212Z,99192.46
2023-02-21T20:45:12.550Z,99201.13
2023-02-21T20:47:41.063Z,99203.95
2023-02-21T20:50:09.457Z,99203.98
2023-02-21T20:52:41.845Z,99206.02
2023-02-21T20:55:10.606Z,99209.05
2023-02-21T20:57:38.899Z,99210.13
2023-02-21T21:00:10.360Z,99218.99
2023-02-21T21:02:39.156Z,99225.54
2023-02-21T21:05:13.893Z,99232.88
2023-02-21T21:07:43.285Z,99234.58
2023-02-21T21:10:14.771Z,99234.73
2023-02-21T21:12:43.526Z,99233.92
2023-02-21T21:15:14.641Z,99231.90
2023-02-21T21:17:43.126Z,99241.05
2023-02-21T21:20:14.779Z,99245.58
2023-02-21T21:22:45.640Z,99239.25
2023-02-21T21:25:14.834Z,99238.70
2023-02-21T21:27:44.845Z,99240.71
2023-02-21T21:30:18.469Z,99231.28
2023-02-21T21:32:46.871Z,99228.82
2023-02-21T21:35:18.218Z,99221.98
2023-02-21T21:37:47.228Z,99225.52
2023-02-21T21:40:27.070Z,99226.92
2023-02-21T21:42:55.977Z,99226.32
2023-02-21T21:45:27.756Z,99234.55
2023-02-21T21:48:00.399Z,99236.80
2023-02-21T21:50:28.777Z,99238.48
2023-02-21T21:52:58.956Z,99239.44
2023-02-21T21:55:29.777Z,99240.73
2023-02-21T21:57:59.229Z,99241.17
2023-02-21T22:00:30.223Z,99242.36
2023-02-21T22:03:02.485Z,99244.19
2023-02-21T22:05:32.042Z,99250.09
2023-02-21T22:08:00.453Z,99246.16
2023-02-21T22:10:29.396Z,99249.81
2023-02-21T22:13:00.164Z,99249.34
2023-02-21T22:15:29.698Z,99256.15
2023-02-21T22:18:04.396Z,99262.25
2023-02-21T22:20:32.674Z,99265.11
2023-02-21T22:23:01.014Z,99264.91
2023-02-21T22:25:30.883Z,99268.23
2023-02-21T22:28:03.428Z,99269.52
2023-02-21T22:30:31.924Z,99265.27
2023-02-21T22:33:00.612Z,99267.30
2023-02-21T22:35:29.086Z,99267.37
2023-02-21T22:38:02.266Z,99263.85
2023-02-21T22:40:35.818Z,99267.85
2023-02-21T22:43:11.384Z,99273.98
2023-02-21T22:45:39.652Z,99276.56
2023-02-21T22:48:10.247Z,99280.42
2023-02-21T22:50:40.522Z,99283.48
2023-02-21T22:53:13.338Z,99287.32
2023-02-21T22:55:41.785Z,99289.16
2023-02-21T22:58:10.541Z,99295.14
2023-02-21T23:00:40.597Z,99302.59
2023-02-21T23:03:15.811Z,99297.70
2023-02-21T23:05:55.115Z,99304.39
2023-02-21T23:08:23.712Z,99302.58
2023-02-21T23:10:52.079Z,99306.50
2023-02-21T23:13:23.280Z,99302.02
2023-02-21T23:15:54.096Z,99314.44
2023-02-21T23:18:24.905Z,99312.63
2023-02-21T23:20:58.175Z,99306.06
2023-02-21T23:23:28.452Z,99307.77
2023-02-21T23:26:01.296Z,99317.77
2023-02-21T23:28:30.912Z,99317.14
2023-02-21T23:30:59.478Z,99316.67
2023-02-21T23:33:30.104Z,99312.94
2023-02-21T23:35:58.440Z,99319.06
2023-02-21T23:38:30.757Z,99322.68
2023-02-21T23:40:59.939Z,99331.33
2023-02-21T23:43:30.666Z,99326.60
2023-02-21T23:46:00.444Z,99324.26
2023-02-21T23:48:29.827Z,99324.21
2023-02-21T23:50:58.464Z,99332.20
2023-02-21T23:53:28.768Z,99333.61
2023-02-21T23:55:58.146Z,99330.75
2023-02-21T23:58:29.885Z,99332.40
